sensor_id;sensor_type;location;lat;lon;timestamp;P1;durP1;ratioP1;P2;durP2;ratioP2
47772;SDS011;33534;51.028;13.716;2023-12-04T00:00:36;13.52;;;10.00;;
47772;SDS011;33534;51.028;13.716;2023-12-04T00:03:02;12.15;;;9.63;;
47772;SDS011;33534;51.028;13.716;2023-12-04T00:05:28;13.48;;;9.48;;
47772;SDS011;33534;51.028;13.716;2023-12-04T00:07:53;14.10;;;10.05;;
47772;SDS011;33534;51.028;13.716;2023-12-04T00:10:19;13.77;;;9.85;;
47772;SDS011;33534;51.028;13.716;2023-12-04T00:12:45;13.45;;;8.48;;
47772;SDS011;33534;51.028;13.716;2023-12-04T00:15:10;14.00;;;9.07;;
47772;SDS011;33534;51.028;13.716;2023-12-04T00:17:36;15.10;;;8.75;;
47772;SDS011;33534;51.028;13.716;2023-12-04T00:20:05;11.98;;;8.43;;
47772;SDS011;33534;51.028;13.716;2023-12-04T00:22:31;13.45;;;9.15;;
47772;SDS011;33534;51.028;13.716;2023-12-04T00:24:57;12.52;;;8.48;;
47772;SDS011;33534;51.028;13.716;2023-12-04T00:27:23;12.35;;;9.27;;
47772;SDS011;33534;51.028;13.716;2023-12-04T00:29:52;13.38;;;8.00;;
47772;SDS011;33534;51.028;13.716;2023-12-04T00:32:17;10.75;;;7.25;;
47772;SDS011;33534;51.028;13.716;2023-12-04T00:34:43;9.90;;;7.78;;
47772;SDS011;33534;51.028;13.716;2023-12-04T00:37:09;11.13;;;7.68;;
47772;SDS011;33534;51.028;13.716;2023-12-04T00:39:34;9.65;;;7.50;;
47772;SDS011;33534;51.028;13.716;2023-12-04T00:42:00;10.25;;;7.78;;
47772;SDS011;33534;51.028;13.716;2023-12-04T00:44:25;9.88;;;7.32;;
47772;SDS011;33534;51.028;13.716;2023-12-04T00:46:51;9.80;;;6.82;;
47772;SDS011;33534;51.028;13.716;2023-12-04T00:49:17;9.90;;;7.03;;
47772;SDS011;33534;51.028;13.716;2023-12-04T00:51:42;9.30;;;6.97;;
47772;SDS011;33534;51.028;13.716;2023-12-04T00:54:08;10.32;;;7.18;;
47772;SDS011;33534;51.028;13.716;2023-12-04T00:56:33;9.27;;;6.70;;
47772;SDS011;33534;51.028;13.716;2023-12-04T00:58:59;9.13;;;6.95;;
47772;SDS011;33534;51.028;13.716;2023-12-04T01:01:25;9.98;;;6.45;;
47772;SDS011;33534;51.028;13.716;2023-12-04T01:03:51;9.48;;;6.82;;
47772;SDS011;33534;51.028;13.716;2023-12-04T01:06:22;10.75;;;6.53;;
47772;SDS011;33534;51.028;13.716;2023-12-04T01:08:48;8.45;;;5.93;;
47772;SDS011;33534;51.028;13.716;2023-12-04T01:11:15;8.88;;;6.03;;
47772;SDS011;33534;51.028;13.716;2023-12-04T01:13:42;8.45;;;6.47;;
47772;SDS011;33534;51.028;13.716;2023-12-04T01:16:08;8.25;;;5.65;;
47772;SDS011;33534;51.028;13.716;2023-12-04T01:18:34;10.80;;;6.13;;
47772;SDS011;33534;51.028;13.716;2023-12-04T01:20:59;9.18;;;5.75;;
47772;SDS011;33534;51.028;13.716;2023-12-04T01:23:25;9.93;;;6.75;;
47772;SDS011;33534;51.028;13.716;2023-12-04T01:25:51;9.38;;;6.45;;
47772;SDS011;33534;51.028;13.716;2023-12-04T01:28:16;8.57;;;5.90;;
47772;SDS011;33534;51.028;13.716;2023-12-04T01:30:42;10.55;;;7.15;;
47772;SDS011;33534;51.028;13.716;2023-12-04T01:33:08;8.07;;;5.72;;
47772;SDS011;33534;51.028;13.716;2023-12-04T01:35:33;8.93;;;5.28;;
47772;SDS011;33534;51.028;13.716;2023-12-04T01:37:59;7.50;;;5.47;;
47772;SDS011;33534;51.028;13.716;2023-12-04T01:40:25;9.82;;;5.05;;
47772;SDS011;33534;51.028;13.716;2023-12-04T01:42:51;9.70;;;5.85;;
47772;SDS011;33534;51.028;13.716;2023-12-04T01:45:17;7.72;;;5.80;;
47772;SDS011;33534;51.028;13.716;2023-12-04T01:47:42;7.40;;;5.20;;
47772;SDS011;33534;51.028;13.716;2023-12-04T01:50:08;5.57;;;4.60;;
47772;SDS011;33534;51.028;13.716;2023-12-04T01:52:34;6.57;;;4.80;;
47772;SDS011;33534;51.028;13.716;2023-12-04T01:55:01;7.18;;;5.07;;
47772;SDS011;33534;51.028;13.716;2023-12-04T01:57:27;7.90;;;4.85;;
47772;SDS011;33534;51.028;13.716;2023-12-04T01:59:53;7.03;;;4.25;;
47772;SDS011;33534;51.028;13.716;2023-12-04T02:02:19;6.72;;;4.45;;
47772;SDS011;33534;51.028;13.716;2023-12-04T02:04:45;8.18;;;5.70;;
47772;SDS011;33534;51.028;13.716;2023-12-04T02:07:11;6.50;;;5.28;;
47772;SDS011;33534;51.028;13.716;2023-12-04T02:09:37;9.25;;;5.03;;
47772;SDS011;33534;51.028;13.716;2023-12-04T02:12:03;9.07;;;5.50;;
47772;SDS011;33534;51.028;13.716;2023-12-04T02:14:29;7.88;;;5.55;;
47772;SDS011;33534;51.028;13.716;2023-12-04T02:16:54;11.85;;;5.15;;
47772;SDS011;33534;51.028;13.716;2023-12-04T02:19:21;8.25;;;4.80;;
47772;SDS011;33534;51.028;13.716;2023-12-04T02:21:47;5.40;;;4.13;;
47772;SDS011;33534;51.028;13.716;2023-12-04T02:24:13;9.10;;;4.40;;
47772;SDS011;33534;51.028;13.716;2023-12-04T02:26:39;5.07;;;3.97;;
47772;SDS011;33534;51.028;13.716;2023-12-04T02:29:14;8.70;;;4.45;;
47772;SDS011;33534;51.028;13.716;2023-12-04T02:31:45;8.32;;;4.43;;
47772;SDS011;33534;51.028;13.716;2023-12-04T02:34:12;7.00;;;4.28;;
47772;SDS011;33534;51.028;13.716;2023-12-04T02:36:40;11.50;;;4.28;;
47772;SDS011;33534;51.028;13.716;2023-12-04T02:39:07;8.57;;;3.92;;
47772;SDS011;33534;51.028;13.716;2023-12-04T02:41:33;6.63;;;3.80;;
47772;SDS011;33534;51.028;13.716;2023-12-04T02:43:58;6.35;;;4.45;;
47772;SDS011;33534;51.028;13.716;2023-12-04T02:46:24;6.57;;;4.25;;
47772;SDS011;33534;51.028;13.716;2023-12-04T02:48:50;4.93;;;3.75;;
47772;SDS011;33534;51.028;13.716;2023-12-04T02:51:15;5.97;;;3.75;;
47772;SDS011;33534;51.028;13.716;2023-12-04T02:53:41;6.13;;;3.85;;
47772;SDS011;33534;51.028;13.716;2023-12-04T02:56:06;4.10;;;3.28;;
47772;SDS011;33534;51.028;13.716;2023-12-04T02:58:32;4.00;;;3.10;;
47772;SDS011;33534;51.028;13.716;2023-12-04T03:00:59;7.38;;;3.70;;
47772;SDS011;33534;51.028;13.716;2023-12-04T03:03:25;6.63;;;3.50;;
47772;SDS011;33534;51.028;13.716;2023-12-04T03:05:50;5.35;;;3.50;;
47772;SDS011;33534;51.028;13.716;2023-12-04T03:08:16;4.43;;;3.20;;
47772;SDS011;33534;51.028;13.716;2023-12-04T03:10:41;4.38;;;3.25;;
47772;SDS011;33534;51.028;13.716;2023-12-04T03:13:07;5.32;;;3.33;;
47772;SDS011;33534;51.028;13.716;2023-12-04T03:15:33;4.60;;;3.30;;
47772;SDS011;33534;51.028;13.716;2023-12-04T03:17:59;5.00;;;3.60;;
47772;SDS011;33534;51.028;13.716;2023-12-04T03:20:26;3.90;;;3.05;;
47772;SDS011;33534;51.028;13.716;2023-12-04T03:22:51;6.00;;;3.33;;
47772;SDS011;33534;51.028;13.716;2023-12-04T03:25:17;4.75;;;3.15;;
47772;SDS011;33534;51.028;13.716;2023-12-04T03:27:42;5.22;;;3.25;;
47772;SDS011;33534;51.028;13.716;2023-12-04T03:30:08;3.90;;;3.10;;
47772;SDS011;33534;51.028;13.716;2023-12-04T03:32:34;4.93;;;3.13;;
47772;SDS011;33534;51.028;13.716;2023-12-04T03:34:59;4.63;;;2.97;;
47772;SDS011;33534;51.028;13.716;2023-12-04T03:37:26;3.17;;;2.55;;
47772;SDS011;33534;51.028;13.716;2023-12-04T03:39:51;4.47;;;2.95;;
47772;SDS011;33534;51.028;13.716;2023-12-04T03:42:17;3.25;;;2.67;;
47772;SDS011;33534;51.028;13.716;2023-12-04T03:44:43;5.90;;;3.00;;
47772;SDS011;33534;51.028;13.716;2023-12-04T03:47:08;3.60;;;2.55;;
47772;SDS011;33534;51.028;13.716;2023-12-04T03:49:34;7.05;;;2.92;;
47772;SDS011;33534;51.028;13.716;2023-12-04T03:51:59;5.43;;;2.58;;
47772;SDS011;33534;51.028;13.716;2023-12-04T03:54:25;3.97;;;2.55;;
47772;SDS011;33534;51.028;13.716;2023-12-04T03:56:50;3.40;;;2.70;;
47772;SDS011;33534;51.028;13.716;2023-12-04T03:59:16;3.67;;;2.50;;
47772;SDS011;33534;51.028;13.716;2023-12-04T04:01:41;3.38;;;2.78;;
47772;SDS011;33534;51.028;13.716;2023-12-04T04:04:07;4.53;;;2.40;;
47772;SDS011;33534;51.028;13.716;2023-12-04T04:06:33;2.97;;;2.42;;
47772;SDS011;33534;51.028;13.716;2023-12-04T04:08:58;2.58;;;2.05;;
47772;SDS011;33534;51.028;13.716;2023-12-04T04:11:24;2.53;;;2.20;;
47772;SDS011;33534;51.028;13.716;2023-12-04T04:13:49;3.20;;;2.45;;
47772;SDS011;33534;51.028;13.716;2023-12-04T04:16:15;2.90;;;2.10;;
47772;SDS011;33534;51.028;13.716;2023-12-04T04:18:41;4.00;;;2.20;;
47772;SDS011;33534;51.028;13.716;2023-12-04T04:21:08;4.32;;;2.00;;
47772;SDS011;33534;51.028;13.716;2023-12-04T04:23:33;3.10;;;2.25;;
47772;SDS011;33534;51.028;13.716;2023-12-04T04:25:59;2.33;;;1.88;;
47772;SDS011;33534;51.028;13.716;2023-12-04T04:28:25;2.28;;;2.08;;
47772;SDS011;33534;51.028;13.716;2023-12-04T04:30:50;4.32;;;2.10;;
47772;SDS011;33534;51.028;13.716;2023-12-04T04:33:16;3.60;;;2.28;;
47772;SDS011;33534;51.028;13.716;2023-12-04T04:35:42;2.80;;;2.17;;
47772;SDS011;33534;51.028;13.716;2023-12-04T04:38:08;2.58;;;2.00;;
47772;SDS011;33534;51.028;13.716;2023-12-04T04:40:34;3.40;;;1.88;;
47772;SDS011;33534;51.028;13.716;2023-12-04T04:42:59;3.03;;;2.10;;
47772;SDS011;33534;51.028;13.716;2023-12-04T04:45:25;2.05;;;1.70;;
47772;SDS011;33534;51.028;13.716;2023-12-04T04:47:51;2.80;;;2.30;;
47772;SDS011;33534;51.028;13.716;2023-12-04T04:50:16;2.88;;;2.05;;
47772;SDS011;33534;51.028;13.716;2023-12-04T04:52:42;3.47;;;1.65;;
47772;SDS011;33534;51.028;13.716;2023-12-04T04:55:08;2.00;;;1.80;;
47772;SDS011;33534;51.028;13.716;2023-12-04T04:57:33;2.75;;;1.92;;
47772;SDS011;33534;51.028;13.716;2023-12-04T04:59:59;2.30;;;1.83;;
47772;SDS011;33534;51.028;13.716;2023-12-04T05:02:24;2.45;;;1.58;;
47772;SDS011;33534;51.028;13.716;2023-12-04T05:04:50;3.03;;;2.22;;
47772;SDS011;33534;51.028;13.716;2023-12-04T05:07:16;2.20;;;1.40;;
47772;SDS011;33534;51.028;13.716;2023-12-04T05:09:41;3.55;;;2.15;;
47772;SDS011;33534;51.028;13.716;2023-12-04T05:12:07;4.30;;;1.90;;
47772;SDS011;33534;51.028;13.716;2023-12-04T05:14:32;3.90;;;1.95;;
47772;SDS011;33534;51.028;13.716;2023-12-04T05:16:58;3.60;;;2.10;;
47772;SDS011;33534;51.028;13.716;2023-12-04T05:19:24;4.53;;;2.40;;
47772;SDS011;33534;51.028;13.716;2023-12-04T05:21:50;2.45;;;1.70;;
47772;SDS011;33534;51.028;13.716;2023-12-04T05:24:15;5.82;;;1.63;;
47772;SDS011;33534;51.028;13.716;2023-12-04T05:26:41;2.33;;;1.40;;
47772;SDS011;33534;51.028;13.716;2023-12-04T05:29:06;2.05;;;1.60;;
47772;SDS011;33534;51.028;13.716;2023-12-04T05:31:32;5.65;;;1.50;;
47772;SDS011;33534;51.028;13.716;2023-12-04T05:33:57;2.28;;;1.90;;
47772;SDS011;33534;51.028;13.716;2023-12-04T05:36:23;2.05;;;1.73;;
47772;SDS011;33534;51.028;13.716;2023-12-04T05:38:49;4.95;;;1.75;;
47772;SDS011;33534;51.028;13.716;2023-12-04T05:41:14;5.97;;;2.20;;
47772;SDS011;33534;51.028;13.716;2023-12-04T05:43:40;2.35;;;1.40;;
47772;SDS011;33534;51.028;13.716;2023-12-04T05:46:05;1.95;;;1.48;;
47772;SDS011;33534;51.028;13.716;2023-12-04T05:48:31;2.67;;;1.52;;
47772;SDS011;33534;51.028;13.716;2023-12-04T05:50:56;3.75;;;1.65;;
47772;SDS011;33534;51.028;13.716;2023-12-04T05:53:22;4.63;;;1.40;;
47772;SDS011;33534;51.028;13.716;2023-12-04T05:55:47;4.10;;;1.80;;
47772;SDS011;33534;51.028;13.716;2023-12-04T05:58:13;2.47;;;1.20;;
47772;SDS011;33534;51.028;13.716;2023-12-04T06:00:39;7.18;;;1.60;;
47772;SDS011;33534;51.028;13.716;2023-12-04T06:03:05;2.15;;;1.55;;
47772;SDS011;33534;51.028;13.716;2023-12-04T06:05:31;3.28;;;1.40;;
47772;SDS011;33534;51.028;13.716;2023-12-04T06:07:56;3.58;;;1.40;;
47772;SDS011;33534;51.028;13.716;2023-12-04T06:10:23;2.08;;;1.60;;
47772;SDS011;33534;51.028;13.716;2023-12-04T06:12:48;2.20;;;1.55;;
47772;SDS011;33534;51.028;13.716;2023-12-04T06:15:14;2.72;;;1.58;;
47772;SDS011;33534;51.028;13.716;2023-12-04T06:17:39;2.90;;;1.70;;
47772;SDS011;33534;51.028;13.716;2023-12-04T06:20:05;2.17;;;1.55;;
47772;SDS011;33534;51.028;13.716;2023-12-04T06:22:32;1.35;;;1.15;;
47772;SDS011;33534;51.028;13.716;2023-12-04T06:24:57;2.25;;;1.30;;
47772;SDS011;33534;51.028;13.716;2023-12-04T06:27:23;2.50;;;1.50;;
47772;SDS011;33534;51.028;13.716;2023-12-04T06:29:49;1.98;;;1.40;;
47772;SDS011;33534;51.028;13.716;2023-12-04T06:32:16;2.30;;;1.35;;
47772;SDS011;33534;51.028;13.716;2023-12-04T06:34:42;1.75;;;1.55;;
47772;SDS011;33534;51.028;13.716;2023-12-04T06:37:11;2.40;;;1.42;;
47772;SDS011;33534;51.028;13.716;2023-12-04T06:39:39;2.57;;;1.43;;
47772;SDS011;33534;51.028;13.716;2023-12-04T06:42:06;3.40;;;1.60;;
47772;SDS011;33534;51.028;13.716;2023-12-04T06:44:32;2.65;;;1.63;;
47772;SDS011;33534;51.028;13.716;2023-12-04T06:47:02;1.75;;;1.45;;
47772;SDS011;33534;51.028;13.716;2023-12-04T06:49:29;1.48;;;1.38;;
47772;SDS011;33534;51.028;13.716;2023-12-04T06:51:56;13.88;;;1.60;;
47772;SDS011;33534;51.028;13.716;2023-12-04T06:54:21;1.83;;;1.30;;
47772;SDS011;33534;51.028;13.716;2023-12-04T06:56:47;6.00;;;2.15;;
47772;SDS011;33534;51.028;13.716;2023-12-04T06:59:13;2.10;;;1.90;;
47772;SDS011;33534;51.028;13.716;2023-12-04T07:01:38;3.25;;;1.50;;
47772;SDS011;33534;51.028;13.716;2023-12-04T07:04:04;1.90;;;1.60;;
47772;SDS011;33534;51.028;13.716;2023-12-04T07:06:35;2.57;;;1.20;;
47772;SDS011;33534;51.028;13.716;2023-12-04T07:09:01;4.57;;;1.63;;
47772;SDS011;33534;51.028;13.716;2023-12-04T07:11:27;3.35;;;1.77;;
47772;SDS011;33534;51.028;13.716;2023-12-04T07:13:52;4.80;;;2.00;;
47772;SDS011;33534;51.028;13.716;2023-12-04T07:16:18;4.55;;;1.90;;
47772;SDS011;33534;51.028;13.716;2023-12-04T07:18:43;2.17;;;1.38;;
47772;SDS011;33534;51.028;13.716;2023-12-04T07:21:09;3.30;;;1.33;;
47772;SDS011;33534;51.028;13.716;2023-12-04T07:23:35;4.28;;;2.10;;
47772;SDS011;33534;51.028;13.716;2023-12-04T07:26:00;6.15;;;1.55;;
47772;SDS011;33534;51.028;13.716;2023-12-04T07:28:26;2.58;;;1.75;;
47772;SDS011;33534;51.028;13.716;2023-12-04T07:30:51;1.65;;;1.00;;
47772;SDS011;33534;51.028;13.716;2023-12-04T07:33:18;2.20;;;1.33;;
47772;SDS011;33534;51.028;13.716;2023-12-04T07:35:44;1.90;;;1.15;;
47772;SDS011;33534;51.028;13.716;2023-12-04T07:38:10;1.63;;;1.27;;
47772;SDS011;33534;51.028;13.716;2023-12-04T07:40:35;1.20;;;1.10;;
47772;SDS011;33534;51.028;13.716;2023-12-04T07:43:01;2.25;;;1.23;;
47772;SDS011;33534;51.028;13.716;2023-12-04T07:45:27;6.78;;;1.33;;
47772;SDS011;33534;51.028;13.716;2023-12-04T07:47:53;4.35;;;1.40;;
47772;SDS011;33534;51.028;13.716;2023-12-04T07:50:18;1.75;;;1.13;;
47772;SDS011;33534;51.028;13.716;2023-12-04T07:52:44;2.08;;;1.48;;
47772;SDS011;33534;51.028;13.716;2023-12-04T07:55:09;3.22;;;1.30;;
47772;SDS011;33534;51.028;13.716;2023-12-04T07:57:35;5.20;;;1.58;;
47772;SDS011;33534;51.028;13.716;2023-12-04T08:00:01;1.80;;;1.30;;
47772;SDS011;33534;51.028;13.716;2023-12-04T08:02:26;2.28;;;1.00;;
47772;SDS011;33534;51.028;13.716;2023-12-04T08:04:53;4.85;;;1.83;;
47772;SDS011;33534;51.028;13.716;2023-12-04T08:07:18;7.15;;;6.13;;
47772;SDS011;33534;51.028;13.716;2023-12-04T08:09:44;8.45;;;7.40;;
47772;SDS011;33534;51.028;13.716;2023-12-04T08:12:09;10.02;;;8.20;;
47772;SDS011;33534;51.028;13.716;2023-12-04T08:14:35;11.10;;;7.70;;
47772;SDS011;33534;51.028;13.716;2023-12-04T08:17:01;10.43;;;8.93;;
47772;SDS011;33534;51.028;13.716;2023-12-04T08:19:26;9.50;;;7.80;;
47772;SDS011;33534;51.028;13.716;2023-12-04T08:21:52;9.30;;;6.28;;
47772;SDS011;33534;51.028;13.716;2023-12-04T08:24:18;17.27;;;7.57;;
47772;SDS011;33534;51.028;13.716;2023-12-04T08:26:44;26.42;;;7.22;;
47772;SDS011;33534;51.028;13.716;2023-12-04T08:29:10;12.23;;;6.75;;
47772;SDS011;33534;51.028;13.716;2023-12-04T08:31:36;15.43;;;6.25;;
47772;SDS011;33534;51.028;13.716;2023-12-04T08:34:02;9.45;;;5.70;;
47772;SDS011;33534;51.028;13.716;2023-12-04T08:36:27;9.52;;;5.20;;
47772;SDS011;33534;51.028;13.716;2023-12-04T08:38:53;9.02;;;5.35;;
47772;SDS011;33534;51.028;13.716;2023-12-04T08:41:18;6.53;;;4.75;;
47772;SDS011;33534;51.028;13.716;2023-12-04T08:43:44;6.60;;;4.78;;
47772;SDS011;33534;51.028;13.716;2023-12-04T08:46:13;11.73;;;4.38;;
47772;SDS011;33534;51.028;13.716;2023-12-04T08:48:39;17.73;;;5.32;;
47772;SDS011;33534;51.028;13.716;2023-12-04T08:51:14;22.42;;;4.78;;
47772;SDS011;33534;51.028;13.716;2023-12-04T08:53:43;20.08;;;4.30;;
47772;SDS011;33534;51.028;13.716;2023-12-04T08:56:09;14.25;;;4.45;;
47772;SDS011;33534;51.028;13.716;2023-12-04T08:58:36;6.93;;;3.10;;
47772;SDS011;33534;51.028;13.716;2023-12-04T09:01:01;15.57;;;4.20;;
47772;SDS011;33534;51.028;13.716;2023-12-04T09:03:28;11.65;;;3.95;;
47772;SDS011;33534;51.028;13.716;2023-12-04T09:05:54;18.55;;;3.92;;
47772;SDS011;33534;51.028;13.716;2023-12-04T09:08:22;16.20;;;3.38;;
47772;SDS011;33534;51.028;13.716;2023-12-04T09:10:47;11.50;;;3.80;;
47772;SDS011;33534;51.028;13.716;2023-12-04T09:13:14;17.02;;;3.97;;
47772;SDS011;33534;51.028;13.716;2023-12-04T09:15:40;13.00;;;4.13;;
47772;SDS011;33534;51.028;13.716;2023-12-04T09:18:05;15.15;;;3.83;;
47772;SDS011;33534;51.028;13.716;2023-12-04T09:20:31;19.08;;;4.03;;
47772;SDS011;33534;51.028;13.716;2023-12-04T09:22:57;8.35;;;3.60;;
47772;SDS011;33534;51.028;13.716;2023-12-04T09:25:22;9.30;;;3.58;;
47772;SDS011;33534;51.028;13.716;2023-12-04T09:27:48;7.70;;;3.58;;
47772;SDS011;33534;51.028;13.716;2023-12-04T09:30:13;13.60;;;3.33;;
47772;SDS011;33534;51.028;13.716;2023-12-04T09:32:39;18.92;;;3.53;;
47772;SDS011;33534;51.028;13.716;2023-12-04T09:35:05;15.75;;;3.45;;
47772;SDS011;33534;51.028;13.716;2023-12-04T09:37:31;10.95;;;3.95;;
47772;SDS011;33534;51.028;13.716;2023-12-04T09:39:57;22.35;;;3.97;;
47772;SDS011;33534;51.028;13.716;2023-12-04T09:42:22;7.93;;;3.53;;
47772;SDS011;33534;51.028;13.716;2023-12-04T09:44:48;12.43;;;3.42;;
47772;SDS011;33534;51.028;13.716;2023-12-04T09:47:17;8.07;;;3.03;;
47772;SDS011;33534;51.028;13.716;2023-12-04T09:49:44;12.43;;;3.40;;
47772;SDS011;33534;51.028;13.716;2023-12-04T09:52:10;11.23;;;3.55;;
47772;SDS011;33534;51.028;13.716;2023-12-04T09:54:36;11.68;;;3.63;;
47772;SDS011;33534;51.028;13.716;2023-12-04T09:57:04;8.77;;;2.97;;
47772;SDS011;33534;51.028;13.716;2023-12-04T09:59:30;10.88;;;3.05;;
47772;SDS011;33534;51.028;13.716;2023-12-04T10:01:56;14.50;;;3.83;;
47772;SDS011;33534;51.028;13.716;2023-12-04T10:04:23;9.63;;;3.30;;
47772;SDS011;33534;51.028;13.716;2023-12-04T10:06:49;7.68;;;2.85;;
47772;SDS011;33534;51.028;13.716;2023-12-04T10:09:17;9.20;;;3.25;;
47772;SDS011;33534;51.028;13.716;2023-12-04T10:11:44;6.20;;;2.47;;
47772;SDS011;33534;51.028;13.716;2023-12-04T10:14:18;6.80;;;3.30;;
47772;SDS011;33534;51.028;13.716;2023-12-04T10:16:44;11.65;;;2.42;;
47772;SDS011;33534;51.028;13.716;2023-12-04T10:19:18;3.58;;;2.03;;
47772;SDS011;33534;51.028;13.716;2023-12-04T10:21:45;8.95;;;2.58;;
47772;SDS011;33534;51.028;13.716;2023-12-04T10:24:12;5.20;;;2.08;;
47772;SDS011;33534;51.028;13.716;2023-12-04T10:26:51;6.82;;;2.22;;
47772;SDS011;33534;51.028;13.716;2023-12-04T10:29:17;8.68;;;2.63;;
47772;SDS011;33534;51.028;13.716;2023-12-04T10:31:43;4.90;;;1.70;;
47772;SDS011;33534;51.028;13.716;2023-12-04T10:34:08;6.85;;;2.35;;
47772;SDS011;33534;51.028;13.716;2023-12-04T10:36:37;5.88;;;1.77;;
47772;SDS011;33534;51.028;13.716;2023-12-04T10:39:03;6.60;;;2.67;;
47772;SDS011;33534;51.028;13.716;2023-12-04T10:41:31;6.38;;;2.00;;
47772;SDS011;33534;51.028;13.716;2023-12-04T10:43:57;5.10;;;2.17;;
47772;SDS011;33534;51.028;13.716;2023-12-04T10:46:24;4.38;;;2.10;;
47772;SDS011;33534;51.028;13.716;2023-12-04T10:48:50;5.80;;;2.15;;
47772;SDS011;33534;51.028;13.716;2023-12-04T10:51:17;7.80;;;2.03;;
47772;SDS011;33534;51.028;13.716;2023-12-04T10:53:43;8.15;;;2.08;;
47772;SDS011;33534;51.028;13.716;2023-12-04T10:56:10;9.60;;;1.88;;
47772;SDS011;33534;51.028;13.716;2023-12-04T10:58:40;5.20;;;2.08;;
47772;SDS011;33534;51.028;13.716;2023-12-04T11:01:07;3.60;;;2.10;;
47772;SDS011;33534;51.028;13.716;2023-12-04T11:03:43;3.45;;;1.90;;
47772;SDS011;33534;51.028;13.716;2023-12-04T11:06:10;3.33;;;1.77;;
47772;SDS011;33534;51.028;13.716;2023-12-04T11:08:37;2.08;;;1.45;;
47772;SDS011;33534;51.028;13.716;2023-12-04T11:11:08;5.50;;;1.60;;
47772;SDS011;33534;51.028;13.716;2023-12-04T11:16:12;2.67;;;1.58;;
47772;SDS011;33534;51.028;13.716;2023-12-04T11:19:03;1.77;;;1.23;;
47772;SDS011;33534;51.028;13.716;2023-12-04T11:21:39;2.50;;;1.55;;
47772;SDS011;33534;51.028;13.716;2023-12-04T11:24:06;2.53;;;1.50;;
47772;SDS011;33534;51.028;13.716;2023-12-04T11:26:33;4.25;;;1.55;;
47772;SDS011;33534;51.028;13.716;2023-12-04T11:28:59;2.83;;;1.30;;
47772;SDS011;33534;51.028;13.716;2023-12-04T11:31:25;2.53;;;1.25;;
47772;SDS011;33534;51.028;13.716;2023-12-04T11:33:51;1.20;;;1.10;;
47772;SDS011;33534;51.028;13.716;2023-12-04T11:36:17;1.88;;;1.20;;
47772;SDS011;33534;51.028;13.716;2023-12-04T11:38:48;2.20;;;1.30;;
47772;SDS011;33534;51.028;13.716;2023-12-04T11:41:18;1.15;;;0.82;;
47772;SDS011;33534;51.028;13.716;2023-12-04T11:43:45;1.10;;;0.80;;
47772;SDS011;33534;51.028;13.716;2023-12-04T11:46:24;1.77;;;1.13;;
47772;SDS011;33534;51.028;13.716;2023-12-04T11:48:51;2.50;;;0.80;;
47772;SDS011;33534;51.028;13.716;2023-12-04T11:54:03;2.40;;;1.00;;
47772;SDS011;33534;51.028;13.716;2023-12-04T11:56:30;2.25;;;1.20;;
47772;SDS011;33534;51.028;13.716;2023-12-04T11:59:02;4.32;;;1.40;;
47772;SDS011;33534;51.028;13.716;2023-12-04T12:01:32;2.03;;;1.20;;
47772;SDS011;33534;51.028;13.716;2023-12-04T12:03:59;2.28;;;1.10;;
47772;SDS011;33534;51.028;13.716;2023-12-04T12:06:26;1.83;;;0.80;;
47772;SDS011;33534;51.028;13.716;2023-12-04T12:08:52;3.08;;;0.85;;
47772;SDS011;33534;51.028;13.716;2023-12-04T12:11:19;2.80;;;1.08;;
47772;SDS011;33534;51.028;13.716;2023-12-04T12:13:45;0.93;;;0.90;;
47772;SDS011;33534;51.028;13.716;2023-12-04T12:16:11;1.10;;;1.00;;
47772;SDS011;33534;51.028;13.716;2023-12-04T12:18:36;0.90;;;0.70;;
47772;SDS011;33534;51.028;13.716;2023-12-04T12:21:03;1.08;;;0.98;;
47772;SDS011;33534;51.028;13.716;2023-12-04T12:23:29;0.90;;;0.90;;
47772;SDS011;33534;51.028;13.716;2023-12-04T12:25:55;1.20;;;0.80;;
47772;SDS011;33534;51.028;13.716;2023-12-04T12:28:21;1.35;;;0.90;;
47772;SDS011;33534;51.028;13.716;2023-12-04T12:30:47;1.10;;;0.80;;
47772;SDS011;33534;51.028;13.716;2023-12-04T12:33:13;2.03;;;1.02;;
47772;SDS011;33534;51.028;13.716;2023-12-04T12:35:40;0.68;;;0.68;;
47772;SDS011;33534;51.028;13.716;2023-12-04T12:38:06;0.75;;;0.70;;
47772;SDS011;33534;51.028;13.716;2023-12-04T12:40:32;0.80;;;0.80;;
47772;SDS011;33534;51.028;13.716;2023-12-04T12:43:08;1.50;;;0.73;;
47772;SDS011;33534;51.028;13.716;2023-12-04T12:45:41;0.82;;;0.50;;
47772;SDS011;33534;51.028;13.716;2023-12-04T12:48:12;0.75;;;0.70;;
47772;SDS011;33534;51.028;13.716;2023-12-04T12:50:38;1.25;;;0.47;;
47772;SDS011;33534;51.028;13.716;2023-12-04T12:53:04;0.85;;;0.77;;
47772;SDS011;33534;51.028;13.716;2023-12-04T12:55:30;0.70;;;0.70;;
47772;SDS011;33534;51.028;13.716;2023-12-04T12:57:56;1.60;;;0.70;;
47772;SDS011;33534;51.028;13.716;2023-12-04T13:00:22;10.95;;;2.95;;
47772;SDS011;33534;51.028;13.716;2023-12-04T13:02:48;7.03;;;2.33;;
47772;SDS011;33534;51.028;13.716;2023-12-04T13:05:17;7.55;;;2.97;;
47772;SDS011;33534;51.028;13.716;2023-12-04T13:07:44;9.63;;;2.53;;
47772;SDS011;33534;51.028;13.716;2023-12-04T13:10:10;7.72;;;2.00;;
47772;SDS011;33534;51.028;13.716;2023-12-04T13:12:36;5.55;;;2.42;;
47772;SDS011;33534;51.028;13.716;2023-12-04T13:15:02;7.80;;;1.98;;
47772;SDS011;33534;51.028;13.716;2023-12-04T13:17:28;8.13;;;2.47;;
47772;SDS011;33534;51.028;13.716;2023-12-04T13:19:54;5.13;;;2.28;;
47772;SDS011;33534;51.028;13.716;2023-12-04T13:22:20;6.60;;;1.88;;
47772;SDS011;33534;51.028;13.716;2023-12-04T13:24:45;15.23;;;1.90;;
47772;SDS011;33534;51.028;13.716;2023-12-04T13:27:11;5.00;;;1.85;;
47772;SDS011;33534;51.028;13.716;2023-12-04T13:29:38;5.55;;;2.63;;
47772;SDS011;33534;51.028;13.716;2023-12-04T13:32:04;9.77;;;2.00;;
47772;SDS011;33534;51.028;13.716;2023-12-04T13:34:30;8.35;;;1.70;;
47772;SDS011;33534;51.028;13.716;2023-12-04T13:36:56;6.00;;;2.00;;
47772;SDS011;33534;51.028;13.716;2023-12-04T13:39:22;5.93;;;1.98;;
47772;SDS011;33534;51.028;13.716;2023-12-04T13:42:01;7.85;;;2.22;;
47772;SDS011;33534;51.028;13.716;2023-12-04T13:44:45;5.30;;;2.10;;
47772;SDS011;33534;51.028;13.716;2023-12-04T13:47:11;6.90;;;1.52;;
47772;SDS011;33534;51.028;13.716;2023-12-04T13:49:37;6.03;;;1.73;;
47772;SDS011;33534;51.028;13.716;2023-12-04T13:52:03;2.00;;;1.35;;
47772;SDS011;33534;51.028;13.716;2023-12-04T13:54:32;2.58;;;1.52;;
47772;SDS011;33534;51.028;13.716;2023-12-04T13:57:12;1.75;;;1.13;;
47772;SDS011;33534;51.028;13.716;2023-12-04T14:00:01;2.70;;;1.30;;
47772;SDS011;33534;51.028;13.716;2023-12-04T14:02:28;3.85;;;0.88;;
47772;SDS011;33534;51.028;13.716;2023-12-04T14:04:54;1.55;;;1.20;;
47772;SDS011;33534;51.028;13.716;2023-12-04T14:07:19;1.85;;;0.88;;
47772;SDS011;33534;51.028;13.716;2023-12-04T14:09:45;3.50;;;1.30;;
47772;SDS011;33534;51.028;13.716;2023-12-04T14:12:12;1.45;;;1.00;;
47772;SDS011;33534;51.028;13.716;2023-12-04T14:14:39;5.20;;;1.60;;
47772;SDS011;33534;51.028;13.716;2023-12-04T14:17:05;3.75;;;1.30;;
47772;SDS011;33534;51.028;13.716;2023-12-04T14:19:32;3.28;;;1.25;;
47772;SDS011;33534;51.028;13.716;2023-12-04T14:21:58;1.25;;;1.02;;
47772;SDS011;33534;51.028;13.716;2023-12-04T14:24:24;5.28;;;1.45;;
47772;SDS011;33534;51.028;13.716;2023-12-04T14:26:50;2.47;;;1.25;;
47772;SDS011;33534;51.028;13.716;2023-12-04T14:29:18;1.83;;;1.30;;
47772;SDS011;33534;51.028;13.716;2023-12-04T14:31:44;6.75;;;1.48;;
47772;SDS011;33534;51.028;13.716;2023-12-04T14:34:11;4.25;;;1.70;;